sensor_id;sensor_type;location;lat;lon;timestamp;P1;durP1;ratioP1;P2;durP2;ratioP2
16502;SDS011;53067;48.114;11.694;2023-04-03T00:01:15;7.83;;;7.03;;
16502;SDS011;53067;48.114;11.694;2023-04-03T00:03:43;7.43;;;6.73;;
16502;SDS011;53067;48.114;11.694;2023-04-03T00:06:11;7.23;;;6.63;;
16502;SDS011;53067;48.114;11.694;2023-04-03T00:08:39;7.60;;;6.90;;
16502;SDS011;53067;48.114;11.694;2023-04-03T00:11:07;7.10;;;6.50;;
16502;SDS011;53067;48.114;11.694;2023-04-03T00:13:36;8.17;;;6.93;;
16502;SDS011;53067;48.114;11.694;2023-04-03T00:16:04;8.00;;;7.20;;
16502;SDS011;53067;48.114;11.694;2023-04-03T00:18:32;8.17;;;7.23;;
16502;SDS011;53067;48.114;11.694;2023-04-03T00:21:01;7.93;;;7.13;;
16502;SDS011;53067;48.114;11.694;2023-04-03T00:23:28;7.97;;;7.17;;
16502;SDS011;53067;48.114;11.694;2023-04-03T00:25:56;8.20;;;7.37;;
16502;SDS011;53067;48.114;11.694;2023-04-03T00:28:24;7.90;;;7.03;;
16502;SDS011;53067;48.114;11.694;2023-04-03T00:30:52;6.80;;;6.20;;
16502;SDS011;53067;48.114;11.694;2023-04-03T00:33:20;7.17;;;6.47;;
16502;SDS011;53067;48.114;11.694;2023-04-03T00:35:50;8.03;;;6.23;;
16502;SDS011;53067;48.114;11.694;2023-04-03T00:38:18;7.23;;;6.53;;
16502;SDS011;53067;48.114;11.694;2023-04-03T00:40:47;6.93;;;6.30;;
16502;SDS011;53067;48.114;11.694;2023-04-03T00:45:47;8.17;;;7.10;;
16502;SDS011;53067;48.114;11.694;2023-04-03T00:48:18;7.27;;;6.10;;
16502;SDS011;53067;48.114;11.694;2023-04-03T00:50:53;7.50;;;6.20;;
16502;SDS011;53067;48.114;11.694;2023-04-03T00:53:22;7.27;;;6.20;;
16502;SDS011;53067;48.114;11.694;2023-04-03T00:55:52;7.13;;;6.53;;
16502;SDS011;53067;48.114;11.694;2023-04-03T00:58:24;7.20;;;6.57;;
16502;SDS011;53067;48.114;11.694;2023-04-03T01:00:54;6.77;;;6.13;;
16502;SDS011;53067;48.114;11.694;2023-04-03T01:03:42;7.10;;;6.50;;
16502;SDS011;53067;48.114;11.694;2023-04-03T01:06:10;6.80;;;6.10;;
16502;SDS011;53067;48.114;11.694;2023-04-03T01:08:38;7.87;;;7.17;;
16502;SDS011;53067;48.114;11.694;2023-04-03T01:11:06;7.30;;;6.60;;
16502;SDS011;53067;48.114;11.694;2023-04-03T01:13:33;7.03;;;6.43;;
16502;SDS011;53067;48.114;11.694;2023-04-03T01:16:01;8.27;;;6.33;;
16502;SDS011;53067;48.114;11.694;2023-04-03T01:18:31;6.73;;;6.13;;
16502;SDS011;53067;48.114;11.694;2023-04-03T01:24:18;6.87;;;6.17;;
16502;SDS011;53067;48.114;11.694;2023-04-03T01:27:00;7.17;;;6.47;;
16502;SDS011;53067;48.114;11.694;2023-04-03T01:29:30;7.27;;;6.57;;
16502;SDS011;53067;48.114;11.694;2023-04-03T01:31:59;7.93;;;7.13;;
16502;SDS011;53067;48.114;11.694;2023-04-03T01:34:28;8.40;;;6.73;;
16502;SDS011;53067;48.114;11.694;2023-04-03T01:37:03;7.13;;;6.53;;
16502;SDS011;53067;48.114;11.694;2023-04-03T01:39:30;9.03;;;6.70;;
16502;SDS011;53067;48.114;11.694;2023-04-03T01:41:58;8.00;;;6.90;;
16502;SDS011;53067;48.114;11.694;2023-04-03T01:44:25;7.50;;;6.80;;
16502;SDS011;53067;48.114;11.694;2023-04-03T01:46:53;7.37;;;6.57;;
16502;SDS011;53067;48.114;11.694;2023-04-03T01:49:20;7.53;;;6.80;;
16502;SDS011;53067;48.114;11.694;2023-04-03T01:51:48;7.07;;;6.27;;
16502;SDS011;53067;48.114;11.694;2023-04-03T01:54:15;10.20;;;7.07;;
16502;SDS011;53067;48.114;11.694;2023-04-03T01:56:43;7.50;;;6.80;;
16502;SDS011;53067;48.114;11.694;2023-04-03T01:59:10;6.57;;;5.93;;
16502;SDS011;53067;48.114;11.694;2023-04-03T02:01:38;6.53;;;5.93;;
16502;SDS011;53067;48.114;11.694;2023-04-03T02:04:05;7.33;;;6.63;;
16502;SDS011;53067;48.114;11.694;2023-04-03T02:06:33;6.60;;;6.00;;
16502;SDS011;53067;48.114;11.694;2023-04-03T02:09:00;7.47;;;6.33;;
16502;SDS011;53067;48.114;11.694;2023-04-03T02:11:28;6.63;;;5.93;;
16502;SDS011;53067;48.114;11.694;2023-04-03T02:13:55;6.97;;;6.27;;
16502;SDS011;53067;48.114;11.694;2023-04-03T02:16:23;7.10;;;6.40;;
16502;SDS011;53067;48.114;11.694;2023-04-03T02:18:50;6.30;;;5.70;;
16502;SDS011;53067;48.114;11.694;2023-04-03T02:21:18;8.20;;;6.17;;
16502;SDS011;53067;48.114;11.694;2023-04-03T02:23:45;6.90;;;6.20;;
16502;SDS011;53067;48.114;11.694;2023-04-03T02:26:14;7.03;;;6.43;;
16502;SDS011;53067;48.114;11.694;2023-04-03T02:28:42;6.27;;;5.63;;
16502;SDS011;53067;48.114;11.694;2023-04-03T02:31:10;7.27;;;6.03;;
16502;SDS011;53067;48.114;11.694;2023-04-03T02:33:38;6.87;;;6.17;;
16502;SDS011;53067;48.114;11.694;2023-04-03T02:36:06;5.73;;;5.23;;
16502;SDS011;53067;48.114;11.694;2023-04-03T02:38:42;6.27;;;5.73;;
16502;SDS011;53067;48.114;11.694;2023-04-03T02:41:10;6.27;;;5.73;;
16502;SDS011;53067;48.114;11.694;2023-04-03T02:43:38;6.50;;;5.70;;
16502;SDS011;53067;48.114;11.694;2023-04-03T02:46:06;6.80;;;5.93;;
16502;SDS011;53067;48.114;11.694;2023-04-03T02:48:34;6.93;;;6.17;;
16502;SDS011;53067;48.114;11.694;2023-04-03T02:51:01;5.77;;;5.27;;
16502;SDS011;53067;48.114;11.694;2023-04-03T02:53:29;6.30;;;5.67;;
16502;SDS011;53067;48.114;11.694;2023-04-03T02:55:56;5.07;;;4.67;;
16502;SDS011;53067;48.114;11.694;2023-04-03T02:58:24;5.53;;;4.90;;
16502;SDS011;53067;48.114;11.694;2023-04-03T03:00:51;5.53;;;5.03;;
16502;SDS011;53067;48.114;11.694;2023-04-03T03:03:20;5.27;;;4.77;;
16502;SDS011;53067;48.114;11.694;2023-04-03T03:05:47;5.50;;;5.00;;
16502;SDS011;53067;48.114;11.694;2023-04-03T03:08:15;5.53;;;5.03;;
16502;SDS011;53067;48.114;11.694;2023-04-03T03:10:44;5.90;;;5.40;;
16502;SDS011;53067;48.114;11.694;2023-04-03T03:13:12;5.53;;;5.00;;
16502;SDS011;53067;48.114;11.694;2023-04-03T03:15:40;4.90;;;4.50;;
16502;SDS011;53067;48.114;11.694;2023-04-03T03:18:07;5.27;;;4.77;;
16502;SDS011;53067;48.114;11.694;2023-04-03T03:20:35;5.53;;;5.10;;
16502;SDS011;53067;48.114;11.694;2023-04-03T03:23:02;5.50;;;4.47;;
16502;SDS011;53067;48.114;11.694;2023-04-03T03:25:30;6.90;;;4.70;;
16502;SDS011;53067;48.114;11.694;2023-04-03T03:27:57;4.70;;;4.30;;
16502;SDS011;53067;48.114;11.694;2023-04-03T03:30:25;5.33;;;4.83;;
16502;SDS011;53067;48.114;11.694;2023-04-03T03:32:52;4.90;;;4.40;;
16502;SDS011;53067;48.114;11.694;2023-04-03T03:35:20;4.10;;;3.80;;
16502;SDS011;53067;48.114;11.694;2023-04-03T03:37:48;4.80;;;4.43;;
16502;SDS011;53067;48.114;11.694;2023-04-03T03:40:15;4.63;;;4.23;;
16502;SDS011;53067;48.114;11.694;2023-04-03T03:42:43;5.20;;;4.70;;
16502;SDS011;53067;48.114;11.694;2023-04-03T03:45:11;4.60;;;4.30;;
16502;SDS011;53067;48.114;11.694;2023-04-03T03:47:38;4.80;;;4.40;;
16502;SDS011;53067;48.114;11.694;2023-04-03T03:50:06;4.60;;;4.20;;
16502;SDS011;53067;48.114;11.694;2023-04-03T03:52:35;5.67;;;4.03;;
16502;SDS011;53067;48.114;11.694;2023-04-03T03:55:02;4.10;;;3.80;;
16502;SDS011;53067;48.114;11.694;2023-04-03T03:57:30;4.63;;;4.23;;
16502;SDS011;53067;48.114;11.694;2023-04-03T03:59:58;4.00;;;3.70;;
16502;SDS011;53067;48.114;11.694;2023-04-03T04:02:25;4.57;;;4.10;;
16502;SDS011;53067;48.114;11.694;2023-04-03T04:04:53;4.57;;;4.13;;
16502;SDS011;53067;48.114;11.694;2023-04-03T04:07:21;5.97;;;4.20;;
16502;SDS011;53067;48.114;11.694;2023-04-03T04:09:48;4.70;;;4.30;;
16502;SDS011;53067;48.114;11.694;2023-04-03T04:12:16;4.80;;;4.20;;
16502;SDS011;53067;48.114;11.694;2023-04-03T04:14:43;4.30;;;3.97;;
16502;SDS011;53067;48.114;11.694;2023-04-03T04:17:12;4.87;;;4.47;;
16502;SDS011;53067;48.114;11.694;2023-04-03T04:19:40;4.97;;;4.47;;
16502;SDS011;53067;48.114;11.694;2023-04-03T04:22:08;4.37;;;3.97;;
16502;SDS011;53067;48.114;11.694;2023-04-03T04:24:35;4.93;;;4.23;;
16502;SDS011;53067;48.114;11.694;2023-04-03T04:27:03;4.37;;;4.07;;
16502;SDS011;53067;48.114;11.694;2023-04-03T04:29:30;4.57;;;3.87;;
16502;SDS011;53067;48.114;11.694;2023-04-03T04:31:59;4.87;;;4.40;;
16502;SDS011;53067;48.114;11.694;2023-04-03T04:34:28;4.63;;;4.13;;
16502;SDS011;53067;48.114;11.694;2023-04-03T04:36:56;4.80;;;4.40;;
16502;SDS011;53067;48.114;11.694;2023-04-03T04:39:23;4.20;;;3.90;;
16502;SDS011;53067;48.114;11.694;2023-04-03T04:41:51;4.90;;;4.50;;
16502;SDS011;53067;48.114;11.694;2023-04-03T04:44:18;5.00;;;4.50;;
16502;SDS011;53067;48.114;11.694;2023-04-03T04:46:46;5.00;;;4.60;;
16502;SDS011;53067;48.114;11.694;2023-04-03T04:49:13;4.80;;;4.40;;
16502;SDS011;53067;48.114;11.694;2023-04-03T04:51:41;5.00;;;4.57;;
16502;SDS011;53067;48.114;11.694;2023-04-03T04:54:08;4.50;;;4.20;;
16502;SDS011;53067;48.114;11.694;2023-04-03T04:56:36;5.53;;;4.47;;
16502;SDS011;53067;48.114;11.694;2023-04-03T04:59:03;4.57;;;4.17;;
16502;SDS011;53067;48.114;11.694;2023-04-03T05:01:31;4.03;;;3.73;;
16502;SDS011;53067;48.114;11.694;2023-04-03T05:03:58;4.50;;;4.20;;
16502;SDS011;53067;48.114;11.694;2023-04-03T05:06:26;4.03;;;3.63;;
16502;SDS011;53067;48.114;11.694;2023-04-03T05:08:55;4.30;;;3.90;;
16502;SDS011;53067;48.114;11.694;2023-04-03T05:11:23;4.43;;;4.00;;
16502;SDS011;53067;48.114;11.694;2023-04-03T05:13:51;4.33;;;3.93;;
16502;SDS011;53067;48.114;11.694;2023-04-03T05:16:18;4.70;;;4.30;;
16502;SDS011;53067;48.114;11.694;2023-04-03T05:18:46;4.00;;;3.70;;
16502;SDS011;53067;48.114;11.694;2023-04-03T05:21:13;4.10;;;3.80;;
16502;SDS011;53067;48.114;11.694;2023-04-03T05:23:41;3.70;;;3.50;;
16502;SDS011;53067;48.114;11.694;2023-04-03T05:26:09;4.50;;;4.17;;
16502;SDS011;53067;48.114;11.694;2023-04-03T05:28:36;4.70;;;4.30;;
16502;SDS011;53067;48.114;11.694;2023-04-03T05:31:04;3.53;;;3.33;;
16502;SDS011;53067;48.114;11.694;2023-04-03T05:33:31;4.47;;;4.10;;
16502;SDS011;53067;48.114;11.694;2023-04-03T05:36:02;4.47;;;4.03;;
16502;SDS011;53067;48.114;11.694;2023-04-03T05:38:29;5.20;;;4.33;;
16502;SDS011;53067;48.114;11.694;2023-04-03T05:40:57;4.40;;;4.00;;
16502;SDS011;53067;48.114;11.694;2023-04-03T05:43:25;4.17;;;3.83;;
16502;SDS011;53067;48.114;11.694;2023-04-03T05:45:52;4.50;;;4.10;;
16502;SDS011;53067;48.114;11.694;2023-04-03T05:48:20;4.00;;;3.70;;
16502;SDS011;53067;48.114;11.694;2023-04-03T05:50:47;4.47;;;4.10;;
16502;SDS011;53067;48.114;11.694;2023-04-03T05:53:24;4.57;;;3.90;;
16502;SDS011;53067;48.114;11.694;2023-04-03T05:55:47;4.33;;;3.93;;
16502;SDS011;53067;48.114;11.694;2023-04-03T05:58:15;4.20;;;3.80;;
16502;SDS011;53067;48.114;11.694;2023-04-03T06:00:42;4.20;;;3.90;;
16502;SDS011;53067;48.114;11.694;2023-04-03T06:03:11;4.37;;;3.97;;
16502;SDS011;53067;48.114;11.694;2023-04-03T06:05:39;4.23;;;3.90;;
16502;SDS011;53067;48.114;11.694;2023-04-03T06:08:07;4.07;;;3.60;;
16502;SDS011;53067;48.114;11.694;2023-04-03T06:10:35;6.40;;;4.10;;
16502;SDS011;53067;48.114;11.694;2023-04-03T06:13:02;3.33;;;3.13;;
16502;SDS011;53067;48.114;11.694;2023-04-03T06:15:30;3.60;;;3.30;;
16502;SDS011;53067;48.114;11.694;2023-04-03T06:17:57;4.10;;;3.70;;
16502;SDS011;53067;48.114;11.694;2023-04-03T06:20:25;3.93;;;3.63;;
16502;SDS011;53067;48.114;11.694;2023-04-03T06:22:53;4.00;;;3.70;;
16502;SDS011;53067;48.114;11.694;2023-04-03T06:25:20;4.23;;;3.83;;
16502;SDS011;53067;48.114;11.694;2023-04-03T06:27:48;4.30;;;3.90;;
16502;SDS011;53067;48.114;11.694;2023-04-03T06:30:15;4.73;;;4.33;;
16502;SDS011;53067;48.114;11.694;2023-04-03T06:32:43;4.00;;;3.70;;
16502;SDS011;53067;48.114;11.694;2023-04-03T06:35:10;3.93;;;3.63;;
16502;SDS011;53067;48.114;11.694;2023-04-03T06:37:38;3.67;;;3.37;;
16502;SDS011;53067;48.114;11.694;2023-04-03T06:40:06;4.10;;;3.80;;
16502;SDS011;53067;48.114;11.694;2023-04-03T06:42:36;3.70;;;3.40;;
16502;SDS011;53067;48.114;11.694;2023-04-03T06:45:04;3.83;;;3.43;;
16502;SDS011;53067;48.114;11.694;2023-04-03T06:47:33;4.77;;;4.27;;
16502;SDS011;53067;48.114;11.694;2023-04-03T06:50:00;4.50;;;4.10;;
16502;SDS011;53067;48.114;11.694;2023-04-03T06:52:28;3.90;;;3.57;;
16502;SDS011;53067;48.114;11.694;2023-04-03T06:54:56;4.23;;;3.80;;
16502;SDS011;53067;48.114;11.694;2023-04-03T06:57:25;4.90;;;4.00;;
16502;SDS011;53067;48.114;11.694;2023-04-03T06:59:52;4.03;;;3.63;;
16502;SDS011;53067;48.114;11.694;2023-04-03T07:02:20;3.90;;;3.60;;
16502;SDS011;53067;48.114;11.694;2023-04-03T07:04:47;4.07;;;3.70;;
16502;SDS011;53067;48.114;11.694;2023-04-03T07:07:15;4.57;;;4.17;;
16502;SDS011;53067;48.114;11.694;2023-04-03T07:09:43;4.00;;;3.60;;
16502;SDS011;53067;48.114;11.694;2023-04-03T07:12:12;4.10;;;3.80;;
16502;SDS011;53067;48.114;11.694;2023-04-03T07:14:40;4.47;;;4.17;;
16502;SDS011;53067;48.114;11.694;2023-04-03T07:17:08;4.10;;;3.77;;
16502;SDS011;53067;48.114;11.694;2023-04-03T07:19:36;4.27;;;3.87;;
16502;SDS011;53067;48.114;11.694;2023-04-03T07:22:03;6.07;;;3.77;;
16502;SDS011;53067;48.114;11.694;2023-04-03T07:24:31;4.37;;;3.97;;
16502;SDS011;53067;48.114;11.694;2023-04-03T07:26:58;4.03;;;3.70;;
16502;SDS011;53067;48.114;11.694;2023-04-03T07:29:28;3.93;;;3.60;;
16502;SDS011;53067;48.114;11.694;2023-04-03T07:31:55;5.70;;;3.87;;
16502;SDS011;53067;48.114;11.694;2023-04-03T07:34:23;4.20;;;3.77;;
16502;SDS011;53067;48.114;11.694;2023-04-03T07:36:51;4.30;;;3.90;;
16502;SDS011;53067;48.114;11.694;2023-04-03T07:39:18;4.63;;;4.03;;
16502;SDS011;53067;48.114;11.694;2023-04-03T07:41:46;4.30;;;4.00;;
16502;SDS011;53067;48.114;11.694;2023-04-03T07:44:13;3.63;;;3.27;;
16502;SDS011;53067;48.114;11.694;2023-04-03T07:46:41;5.77;;;4.00;;
16502;SDS011;53067;48.114;11.694;2023-04-03T07:49:08;7.90;;;7.10;;
16502;SDS011;53067;48.114;11.694;2023-04-03T07:51:51;5.17;;;4.77;;
16502;SDS011;53067;48.114;11.694;2023-04-03T07:54:19;4.53;;;4.10;;
16502;SDS011;53067;48.114;11.694;2023-04-03T07:56:46;4.63;;;4.23;;
16502;SDS011;53067;48.114;11.694;2023-04-03T07:59:14;4.27;;;3.93;;
16502;SDS011;53067;48.114;11.694;2023-04-03T08:01:41;4.20;;;3.87;;
16502;SDS011;53067;48.114;11.694;2023-04-03T08:04:09;4.53;;;4.13;;
16502;SDS011;53067;48.114;11.694;2023-04-03T08:06:36;4.37;;;4.07;;
16502;SDS011;53067;48.114;11.694;2023-04-03T08:09:04;4.90;;;4.50;;
16502;SDS011;53067;48.114;11.694;2023-04-03T08:11:31;6.00;;;4.60;;
16502;SDS011;53067;48.114;11.694;2023-04-03T08:13:59;5.40;;;4.90;;
16502;SDS011;53067;48.114;11.694;2023-04-03T08:16:28;5.83;;;5.23;;
16502;SDS011;53067;48.114;11.694;2023-04-03T08:18:55;5.23;;;4.80;;
16502;SDS011;53067;48.114;11.694;2023-04-03T08:21:23;4.83;;;4.33;;
16502;SDS011;53067;48.114;11.694;2023-04-03T08:23:51;5.40;;;4.93;;
16502;SDS011;53067;48.114;11.694;2023-04-03T08:26:19;4.93;;;4.53;;
16502;SDS011;53067;48.114;11.694;2023-04-03T08:28:48;4.77;;;4.37;;
16502;SDS011;53067;48.114;11.694;2023-04-03T08:31:17;5.07;;;4.53;;
16502;SDS011;53067;48.114;11.694;2023-04-03T08:33:46;5.10;;;4.67;;
16502;SDS011;53067;48.114;11.694;2023-04-03T08:36:19;6.23;;;4.63;;
16502;SDS011;53067;48.114;11.694;2023-04-03T08:38:49;5.43;;;4.93;;
16502;SDS011;53067;48.114;11.694;2023-04-03T08:41:29;5.30;;;4.80;;
16502;SDS011;53067;48.114;11.694;2023-04-03T08:46:47;4.87;;;4.47;;
16502;SDS011;53067;48.114;11.694;2023-04-03T08:49:10;6.33;;;4.93;;
16502;SDS011;53067;48.114;11.694;2023-04-03T08:51:46;5.63;;;5.10;;
16502;SDS011;53067;48.114;11.694;2023-04-03T08:54:24;5.63;;;5.00;;
16502;SDS011;53067;48.114;11.694;2023-04-03T08:56:58;6.27;;;4.37;;
16502;SDS011;53067;48.114;11.694;2023-04-03T08:59:29;7.07;;;4.53;;
16502;SDS011;53067;48.114;11.694;2023-04-03T09:02:00;4.83;;;4.43;;
16502;SDS011;53067;48.114;11.694;2023-04-03T09:04:32;4.50;;;4.10;;
16502;SDS011;53067;48.114;11.694;2023-04-03T09:07:03;4.27;;;3.97;;
16502;SDS011;53067;48.114;11.694;2023-04-03T09:09:39;4.20;;;3.90;;
16502;SDS011;53067;48.114;11.694;2023-04-03T09:20:10;4.67;;;4.27;;
16502;SDS011;53067;48.114;11.694;2023-04-03T09:22:53;4.27;;;3.97;;
16502;SDS011;53067;48.114;11.694;2023-04-03T09:27:51;4.17;;;3.87;;
16502;SDS011;53067;48.114;11.694;2023-04-03T09:30:23;4.70;;;4.20;;
16502;SDS011;53067;48.114;11.694;2023-04-03T09:32:52;6.20;;;3.97;;
16502;SDS011;53067;48.114;11.694;2023-04-03T09:35:23;4.43;;;4.03;;
16502;SDS011;53067;48.114;11.694;2023-04-03T09:37:53;4.57;;;4.27;;
16502;SDS011;53067;48.114;11.694;2023-04-03T09:42:57;3.73;;;3.47;;
16502;SDS011;53067;48.114;11.694;2023-04-03T09:48:05;4.23;;;3.93;;
16502;SDS011;53067;48.114;11.694;2023-04-03T09:50:37;4.93;;;4.43;;
16502;SDS011;53067;48.114;11.694;2023-04-03T09:53:28;4.43;;;4.03;;
16502;SDS011;53067;48.114;11.694;2023-04-03T09:58:51;4.63;;;4.23;;
16502;SDS011;53067;48.114;11.694;2023-04-03T10:01:35;4.10;;;3.80;;
16502;SDS011;53067;48.114;11.694;2023-04-03T10:04:14;4.37;;;4.00;;
16502;SDS011;53067;48.114;11.694;2023-04-03T10:06:44;4.20;;;3.90;;
16502;SDS011;53067;48.114;11.694;2023-04-03T10:09:21;3.90;;;3.60;;
16502;SDS011;53067;48.114;11.694;2023-04-03T10:14:33;4.30;;;3.17;;
16502;SDS011;53067;48.114;11.694;2023-04-03T10:19:53;4.47;;;4.07;;
16502;SDS011;53067;48.114;11.694;2023-04-03T10:25:11;4.00;;;3.73;;
16502;SDS011;53067;48.114;11.694;2023-04-03T10:27:53;4.13;;;3.57;;
16502;SDS011;53067;48.114;11.694;2023-04-03T10:30:36;4.47;;;4.17;;
16502;SDS011;53067;48.114;11.694;2023-04-03T10:33:18;3.90;;;3.67;;
16502;SDS011;53067;48.114;11.694;2023-04-03T10:38:51;4.30;;;4.00;;
16502;SDS011;53067;48.114;11.694;2023-04-03T10:41:29;3.67;;;3.37;;
16502;SDS011;53067;48.114;11.694;2023-04-03T10:44:08;4.03;;;3.73;;
16502;SDS011;53067;48.114;11.694;2023-04-03T10:46:44;3.87;;;3.60;;
16502;SDS011;53067;48.114;11.694;2023-04-03T10:49:22;4.43;;;4.13;;
16502;SDS011;53067;48.114;11.694;2023-04-03T10:57:50;3.90;;;3.60;;
16502;SDS011;53067;48.114;11.694;2023-04-03T11:00:45;4.30;;;3.93;;
16502;SDS011;53067;48.114;11.694;2023-04-03T11:03:12;6.00;;;3.70;;
16502;SDS011;53067;48.114;11.694;2023-04-03T11:05:45;3.90;;;3.60;;
16502;SDS011;53067;48.114;11.694;2023-04-03T11:08:24;5.03;;;3.80;;
16502;SDS011;53067;48.114;11.694;2023-04-03T11:10:50;3.70;;;3.40;;
16502;SDS011;53067;48.114;11.694;2023-04-03T11:13:24;3.80;;;3.50;;
16502;SDS011;53067;48.114;11.694;2023-04-03T11:15:53;3.60;;;3.30;;
16502;SDS011;53067;48.114;11.694;2023-04-03T11:18:28;3.80;;;3.50;;
16502;SDS011;53067;48.114;11.694;2023-04-03T11:21:04;3.37;;;3.13;;
16502;SDS011;53067;48.114;11.694;2023-04-03T11:23:36;3.70;;;3.47;;
16502;SDS011;53067;48.114;11.694;2023-04-03T11:26:10;3.30;;;3.00;;
16502;SDS011;53067;48.114;11.694;2023-04-03T11:28:40;3.13;;;2.87;;
16502;SDS011;53067;48.114;11.694;2023-04-03T11:31:13;3.40;;;3.10;;
16502;SDS011;53067;48.114;11.694;2023-04-03T11:33:49;2.83;;;2.63;;
16502;SDS011;53067;48.114;11.694;2023-04-03T11:36:53;3.57;;;2.90;;
16502;SDS011;53067;48.114;11.694;2023-04-03T11:38:55;3.50;;;3.20;;
16502;SDS011;53067;48.114;11.694;2023-04-03T11:41:30;3.87;;;3.27;;
16502;SDS011;53067;48.114;11.694;2023-04-03T11:44:05;3.80;;;3.07;;
16502;SDS011;53067;48.114;11.694;2023-04-03T12:24:34;6.43;;;2.53;;
16502;SDS011;53067;48.114;11.694;2023-04-03T12:32:48;2.97;;;2.60;;
16502;SDS011;53067;48.114;11.694;2023-04-03T12:35:19;3.30;;;2.90;;
16502;SDS011;53067;48.114;11.694;2023-04-03T12:38:12;3.13;;;2.67;;
16502;SDS011;53067;48.114;11.694;2023-04-03T12:40:51;4.07;;;2.87;;
16502;SDS011;53067;48.114;11.694;2023-04-03T12:51:21;2.60;;;2.40;;
16502;SDS011;53067;48.114;11.694;2023-04-03T12:53:56;2.57;;;2.20;;
16502;SDS011;53067;48.114;11.694;2023-04-03T12:56:31;1.93;;;1.83;;
16502;SDS011;53067;48.114;11.694;2023-04-03T13:02:02;2.77;;;2.57;;
16502;SDS011;53067;48.114;11.694;2023-04-03T13:04:33;2.60;;;1.97;;
16502;SDS011;53067;48.114;11.694;2023-04-03T13:07:01;2.27;;;2.07;;
16502;SDS011;53067;48.114;11.694;2023-04-03T13:09:31;3.97;;;2.00;;
16502;SDS011;53067;48.114;11.694;2023-04-03T13:12:09;4.47;;;2.30;;
16502;SDS011;53067;48.114;11.694;2023-04-03T13:14:32;2.30;;;2.10;;
16502;SDS011;53067;48.114;11.694;2023-04-03T13:17:03;3.83;;;2.20;;
16502;SDS011;53067;48.114;11.694;2023-04-03T13:19:42;2.30;;;2.10;;
16502;SDS011;53067;48.114;11.694;2023-04-03T13:24:56;1.83;;;1.73;;
16502;SDS011;53067;48.114;11.694;2023-04-03T13:27:26;1.97;;;1.60;;
16502;SDS011;53067;48.114;11.694;2023-04-03T13:29:57;2.03;;;1.87;;
16502;SDS011;53067;48.114;11.694;2023-04-03T13:32:27;2.30;;;1.80;;
16502;SDS011;53067;48.114;11.694;2023-04-03T13:34:57;1.80;;;1.70;;
16502;SDS011;53067;48.114;11.694;2023-04-03T13:37:26;2.43;;;1.90;;
16502;SDS011;53067;48.114;11.694;2023-04-03T13:42:38;2.20;;;2.07;;
16502;SDS011;53067;48.114;11.694;2023-04-03T13:45:23;2.13;;;1.93;;
16502;SDS011;53067;48.114;11.694;2023-04-03T13:48:15;2.43;;;1.90;;
16502;SDS011;53067;48.114;11.694;2023-04-03T13:50:53;3.07;;;2.23;;
16502;SDS011;53067;48.114;11.694;2023-04-03T13:53:22;3.27;;;2.17;;
16502;SDS011;53067;48.114;11.694;2023-04-03T13:55:59;1.80;;;1.70;;
16502;SDS011;53067;48.114;11.694;2023-04-03T13:58:28;1.83;;;1.73;;
16502;SDS011;53067;48.114;11.694;2023-04-03T14:01:08;3.37;;;2.03;;
16502;SDS011;53067;48.114;11.694;2023-04-03T14:03:44;2.37;;;2.17;;
16502;SDS011;53067;48.114;11.694;2023-04-03T14:06:14;2.00;;;1.80;;
16502;SDS011;53067;48.114;11.694;2023-04-03T14:08:43;3.10;;;1.87;;
16502;SDS011;53067;48.114;11.694;2023-04-03T14:11:17;1.93;;;1.70;;
16502;SDS011;53067;48.114;11.694;2023-04-03T14:13:42;2.03;;;1.73;;
16502;SDS011;53067;48.114;11.694;2023-04-03T14:16:19;1.97;;;1.83;;
16502;SDS011;53067;48.114;11.694;2023-04-03T14:18:45;2.53;;;2.00;;
16502;SDS011;53067;48.114;11.694;2023-04-03T14:21:15;3.03;;;2.00;;
16502;SDS011;53067;48.114;11.694;2023-04-03T14:23:44;2.27;;;1.70;;
16502;SDS011;53067;48.114;11.694;2023-04-03T14:26:13;2.60;;;2.40;;
16502;SDS011;53067;48.114;11.694;2023-04-03T14:28:47;2.00;;;1.90;;
16502;SDS011;53067;48.114;11.694;2023-04-03T14:31:17;2.97;;;1.97;;
16502;SDS011;53067;48.114;11.694;2023-04-03T14:33:45;1.70;;;1.60;;
16502;SDS011;53067;48.114;11.694;2023-04-03T14:36:13;1.70;;;1.60;;
16502;SDS011;53067;48.114;11.694;2023-04-03T14:38:43;3.27;;;1.70;;
16502;SDS011;53067;48.114;11.694;2023-04-03T14:41:12;1.60;;;1.50;;
16502;SDS011;53067;48.114;11.694;2023-04-03T14:43:41;2.47;;;1.60;;
16502;SDS011;53067;48.114;11.694;2023-04-03T14:46:12;1.63;;;1.53;;
16502;SDS011;53067;48.114;11.694;2023-04-03T14:48:41;2.23;;;1.70;;
16502;SDS011;53067;48.114;11.694;2023-04-03T14:51:13;1.70;;;1.60;;
16502;SDS011;53067;48.114;11.694;2023-04-03T14:53:43;2.20;;;1.33;;
16502;SDS011;53067;48.114;11.694;2023-04-03T14:56:23;1.93;;;1.60;;
16502;SDS011;53067;48.114;11.694;2023-04-03T14:58:48;2.77;;;1.53;;
16502;SDS011;53067;48.114;11.694;2023-04-03T15:01:18;1.50;;;1.40;;
16502;SDS011;53067;48.114;11.694;2023-04-03T15:03:46;2.00;;;1.70;;
16502;SDS011;53067;48.114;11.694;2023-04-03T15:06:13;1.93;;;1.80;;
16502;SDS011;53067;48.114;11.694;2023-04-03T15:08:42;1.63;;;1.43;;
16502;SDS011;53067;48.114;11.694;2023-04-03T15:11:12;1.87;;;1.77;;
16502;SDS011;53067;48.114;11.694;2023-04-03T15:13:40;1.60;;;1.50;;
16502;SDS011;53067;48.114;11.694;2023-04-03T15:16:15;2.03;;;1.60;;
16502;SDS011;53067;48.114;11.694;2023-04-03T15:18:44;2.37;;;1.70;;
16502;SDS011;53067;48.114;11.694;2023-04-03T15:21:12;1.93;;;1.50;;
16502;SDS011;53067;48.114;11.694;2023-04-03T15:23:40;3.53;;;1.43;;
16502;SDS011;53067;48.114;11.694;2023-04-03T15:26:10;1.93;;;1.70;;
16502;SDS011;53067;48.114;11.694;2023-04-03T15:28:39;1.40;;;1.40;;
16502;SDS011;53067;48.114;11.694;2023-04-03T15:31:09;2.17;;;1.63;;
16502;SDS011;53067;48.114;11.694;2023-04-03T15:33:37;2.33;;;1.50;;
16502;SDS011;53067;48.114;11.694;2023-04-03T15:36:05;1.53;;;1.43;;
16502;SDS011;53067;48.114;11.694;2023-04-03T15:38:32;1.83;;;1.60;;
16502;SDS011;53067;48.114;11.694;2023-04-03T15:41:00;1.70;;;1.60;;
16502;SDS011;53067;48.114;11.694;2023-04-03T15:43:28;1.77;;;1.67;;
16502;SDS011;53067;48.114;11.694;2023-04-03T15:45:59;1.50;;;1.40;;
16502;SDS011;53067;48.114;11.694;2023-04-03T15:48:27;1.43;;;1.37;;
16502;SDS011;53067;48.114;11.694;2023-04-03T15:50:55;1.67;;;1.57;;
16502;SDS011;53067;48.114;11.694;2023-04-03T15:53:23;1.83;;;1.73;;
16502;SDS011;53067;48.114;11.694;2023-04-03T15:55:51;2.20;;;1.43;;
16502;SDS011;53067;48.114;11.694;2023-04-03T15:58:18;1.50;;;1.40;;
16502;SDS011;53067;48.114;11.694;2023-04-03T16:00:45;1.70;;;1.60;;
16502;SDS011;53067;48.114;11.694;2023-04-03T16:03:17;1.40;;;1.30;;
16502;SDS011;53067;48.114;11.694;2023-04-03T16:05:46;3.37;;;1.60;;
16502;SDS011;53067;48.114;11.694;2023-04-03T16:08:14;2.53;;;1.60;;
16502;SDS011;53067;48.114;11.694;2023-04-03T16:10:43;1.50;;;1.40;;
16502;SDS011;53067;48.114;11.694;2023-04-03T16:13:14;1.53;;;1.43;;
16502;SDS011;53067;48.114;11.694;2023-04-03T16:15:41;1.50;;;1.40;;
16502;SDS011;53067;48.114;11.694;2023-04-03T16:18:09;1.90;;;1.80;;
16502;SDS011;53067;48.114;11.694;2023-04-03T16:20:39;3.57;;;2.20;;
16502;SDS011;53067;48.114;11.694;2023-04-03T16:23:06;1.67;;;1.57;;
16502;SDS011;53067;48.114;11.694;2023-04-03T16:25:34;2.27;;;1.47;;
16502;SDS011;53067;48.114;11.694;2023-04-03T16:28:02;1.73;;;1.63;;
16502;SDS011;53067;48.114;11.694;2023-04-03T16:30:30;2.40;;;1.60;;
16502;SDS011;53067;48.114;11.694;2023-04-03T16:32:57;1.60;;;1.47;;